sensor_id;sensor_type;location;lat;lon;timestamp;P1;durP1;ratioP1;P2;durP2;ratioP2
77726;SDS011;68312;53.502;10.030;2023-08-06T00:01:05;3.67;;;2.13;;
77726;SDS011;68312;53.502;10.030;2023-08-06T00:03:30;5.93;;;2.30;;
77726;SDS011;68312;53.502;10.030;2023-08-06T00:05:56;5.22;;;2.50;;
77726;SDS011;68312;53.502;10.030;2023-08-06T00:08:21;6.22;;;2.72;;
77726;SDS011;68312;53.502;10.030;2023-08-06T00:10:47;5.43;;;2.60;;
77726;SDS011;68312;53.502;10.030;2023-08-06T00:13:13;7.10;;;3.00;;
77726;SDS011;68312;53.502;10.030;2023-08-06T00:15:39;5.70;;;2.90;;
77726;SDS011;68312;53.502;10.030;2023-08-06T00:18:04;6.70;;;2.90;;
77726;SDS011;68312;53.502;10.030;2023-08-06T00:20:30;6.82;;;2.83;;
77726;SDS011;68312;53.502;10.030;2023-08-06T00:22:55;5.68;;;3.25;;
77726;SDS011;68312;53.502;10.030;2023-08-06T00:25:20;6.90;;;3.45;;
77726;SDS011;68312;53.502;10.030;2023-08-06T00:27:46;9.50;;;3.50;;
77726;SDS011;68312;53.502;10.030;2023-08-06T00:30:11;8.77;;;3.38;;
77726;SDS011;68312;53.502;10.030;2023-08-06T00:32:37;7.03;;;3.00;;
77726;SDS011;68312;53.502;10.030;2023-08-06T00:35:02;5.57;;;3.05;;
77726;SDS011;68312;53.502;10.030;2023-08-06T00:37:29;5.78;;;3.53;;
77726;SDS011;68312;53.502;10.030;2023-08-06T00:39:55;7.43;;;3.55;;
77726;SDS011;68312;53.502;10.030;2023-08-06T00:42:20;7.05;;;3.60;;
77726;SDS011;68312;53.502;10.030;2023-08-06T00:44:46;5.75;;;3.70;;
77726;SDS011;68312;53.502;10.030;2023-08-06T00:47:12;5.28;;;2.88;;
77726;SDS011;68312;53.502;10.030;2023-08-06T00:49:38;7.07;;;3.40;;
77726;SDS011;68312;53.502;10.030;2023-08-06T00:52:04;7.78;;;3.60;;
77726;SDS011;68312;53.502;10.030;2023-08-06T00:54:32;7.53;;;3.83;;
77726;SDS011;68312;53.502;10.030;2023-08-06T00:56:59;8.77;;;4.80;;
77726;SDS011;68312;53.502;10.030;2023-08-06T00:59:26;9.85;;;3.53;;
77726;SDS011;68312;53.502;10.030;2023-08-06T01:01:53;7.18;;;4.15;;
77726;SDS011;68312;53.502;10.030;2023-08-06T01:04:18;8.35;;;3.83;;
77726;SDS011;68312;53.502;10.030;2023-08-06T01:09:54;8.18;;;4.03;;
77726;SDS011;68312;53.502;10.030;2023-08-06T01:12:50;6.78;;;2.95;;
77726;SDS011;68312;53.502;10.030;2023-08-06T01:15:35;6.90;;;3.10;;
77726;SDS011;68312;53.502;10.030;2023-08-06T01:18:10;5.40;;;2.88;;
77726;SDS011;68312;53.502;10.030;2023-08-06T01:20:36;5.10;;;2.85;;
77726;SDS011;68312;53.502;10.030;2023-08-06T01:23:02;5.25;;;2.72;;
77726;SDS011;68312;53.502;10.030;2023-08-06T01:25:30;4.93;;;2.58;;
77726;SDS011;68312;53.502;10.030;2023-08-06T01:28:16;5.13;;;2.67;;
77726;SDS011;68312;53.502;10.030;2023-08-06T01:31:10;5.88;;;3.10;;
77726;SDS011;68312;53.502;10.030;2023-08-06T01:33:52;5.18;;;2.90;;
77726;SDS011;68312;53.502;10.030;2023-08-06T01:36:19;6.90;;;2.85;;
77726;SDS011;68312;53.502;10.030;2023-08-06T01:38:46;6.13;;;3.00;;
77726;SDS011;68312;53.502;10.030;2023-08-06T01:41:12;6.68;;;3.00;;
77726;SDS011;68312;53.502;10.030;2023-08-06T01:43:37;5.18;;;2.63;;
77726;SDS011;68312;53.502;10.030;2023-08-06T01:46:03;4.32;;;2.50;;
77726;SDS011;68312;53.502;10.030;2023-08-06T01:48:28;6.97;;;3.08;;
77726;SDS011;68312;53.502;10.030;2023-08-06T01:50:54;6.10;;;2.47;;
77726;SDS011;68312;53.502;10.030;2023-08-06T01:53:19;4.50;;;2.50;;
77726;SDS011;68312;53.502;10.030;2023-08-06T01:55:51;4.10;;;2.50;;
77726;SDS011;68312;53.502;10.030;2023-08-06T01:58:16;8.40;;;3.00;;
77726;SDS011;68312;53.502;10.030;2023-08-06T02:00:41;6.65;;;2.97;;
77726;SDS011;68312;53.502;10.030;2023-08-06T02:03:07;4.07;;;2.40;;
77726;SDS011;68312;53.502;10.030;2023-08-06T02:05:32;4.25;;;2.78;;
77726;SDS011;68312;53.502;10.030;2023-08-06T02:07:58;5.25;;;2.92;;
77726;SDS011;68312;53.502;10.030;2023-08-06T02:10:24;5.97;;;2.78;;
77726;SDS011;68312;53.502;10.030;2023-08-06T02:12:49;3.80;;;2.28;;
77726;SDS011;68312;53.502;10.030;2023-08-06T02:15:15;4.38;;;2.15;;
77726;SDS011;68312;53.502;10.030;2023-08-06T02:17:40;4.97;;;2.60;;
77726;SDS011;68312;53.502;10.030;2023-08-06T02:20:06;5.20;;;2.65;;
77726;SDS011;68312;53.502;10.030;2023-08-06T02:22:32;5.03;;;2.80;;
77726;SDS011;68312;53.502;10.030;2023-08-06T02:24:58;4.70;;;2.60;;
77726;SDS011;68312;53.502;10.030;2023-08-06T02:27:23;5.45;;;2.70;;
77726;SDS011;68312;53.502;10.030;2023-08-06T02:29:49;5.70;;;2.72;;
77726;SDS011;68312;53.502;10.030;2023-08-06T02:32:14;5.30;;;3.13;;
77726;SDS011;68312;53.502;10.030;2023-08-06T02:34:40;4.85;;;2.97;;
77726;SDS011;68312;53.502;10.030;2023-08-06T02:37:06;6.68;;;3.20;;
77726;SDS011;68312;53.502;10.030;2023-08-06T02:39:31;6.28;;;3.55;;
77726;SDS011;68312;53.502;10.030;2023-08-06T02:41:58;9.63;;;3.88;;
77726;SDS011;68312;53.502;10.030;2023-08-06T02:44:26;7.57;;;3.90;;
77726;SDS011;68312;53.502;10.030;2023-08-06T02:46:53;6.13;;;3.83;;
77726;SDS011;68312;53.502;10.030;2023-08-06T02:49:18;7.63;;;3.90;;
77726;SDS011;68312;53.502;10.030;2023-08-06T02:51:46;8.45;;;4.07;;
77726;SDS011;68312;53.502;10.030;2023-08-06T02:54:12;7.65;;;4.38;;
77726;SDS011;68312;53.502;10.030;2023-08-06T02:56:37;7.18;;;3.70;;
77726;SDS011;68312;53.502;10.030;2023-08-06T02:59:03;7.43;;;3.97;;
77726;SDS011;68312;53.502;10.030;2023-08-06T03:01:28;6.70;;;3.72;;
77726;SDS011;68312;53.502;10.030;2023-08-06T03:03:54;7.63;;;4.07;;
77726;SDS011;68312;53.502;10.030;2023-08-06T03:06:20;8.25;;;4.30;;
77726;SDS011;68312;53.502;10.030;2023-08-06T03:08:45;7.10;;;3.80;;
77726;SDS011;68312;53.502;10.030;2023-08-06T03:11:11;10.75;;;4.43;;
77726;SDS011;68312;53.502;10.030;2023-08-06T03:13:36;6.47;;;3.88;;
77726;SDS011;68312;53.502;10.030;2023-08-06T03:16:01;10.68;;;3.75;;
77726;SDS011;68312;53.502;10.030;2023-08-06T03:18:27;7.00;;;3.85;;
77726;SDS011;68312;53.502;10.030;2023-08-06T03:20:52;6.20;;;3.65;;
77726;SDS011;68312;53.502;10.030;2023-08-06T03:23:18;8.20;;;4.53;;
77726;SDS011;68312;53.502;10.030;2023-08-06T03:25:44;6.80;;;3.70;;
77726;SDS011;68312;53.502;10.030;2023-08-06T03:28:10;8.13;;;4.07;;
77726;SDS011;68312;53.502;10.030;2023-08-06T03:30:35;6.57;;;3.53;;
77726;SDS011;68312;53.502;10.030;2023-08-06T03:33:01;6.40;;;3.90;;
77726;SDS011;68312;53.502;10.030;2023-08-06T03:35:26;9.00;;;3.92;;
77726;SDS011;68312;53.502;10.030;2023-08-06T03:37:51;5.85;;;3.30;;
77726;SDS011;68312;53.502;10.030;2023-08-06T03:40:17;8.07;;;3.90;;
77726;SDS011;68312;53.502;10.030;2023-08-06T03:42:42;6.93;;;3.78;;
77726;SDS011;68312;53.502;10.030;2023-08-06T03:45:08;6.68;;;3.72;;
77726;SDS011;68312;53.502;10.030;2023-08-06T03:47:34;7.05;;;3.28;;
77726;SDS011;68312;53.502;10.030;2023-08-06T03:49:59;9.88;;;4.13;;
77726;SDS011;68312;53.502;10.030;2023-08-06T03:52:25;8.35;;;3.55;;
77726;SDS011;68312;53.502;10.030;2023-08-06T03:54:50;5.85;;;3.40;;
77726;SDS011;68312;53.502;10.030;2023-08-06T03:57:16;8.05;;;3.90;;
77726;SDS011;68312;53.502;10.030;2023-08-06T03:59:42;4.65;;;3.20;;
77726;SDS011;68312;53.502;10.030;2023-08-06T04:02:07;5.60;;;3.47;;
77726;SDS011;68312;53.502;10.030;2023-08-06T04:04:32;7.88;;;3.30;;
77726;SDS011;68312;53.502;10.030;2023-08-06T04:06:58;8.32;;;3.65;;
77726;SDS011;68312;53.502;10.030;2023-08-06T04:09:23;5.88;;;3.20;;
77726;SDS011;68312;53.502;10.030;2023-08-06T04:11:48;6.15;;;3.30;;
77726;SDS011;68312;53.502;10.030;2023-08-06T04:14:14;6.03;;;3.20;;
77726;SDS011;68312;53.502;10.030;2023-08-06T04:16:39;7.60;;;3.35;;
77726;SDS011;68312;53.502;10.030;2023-08-06T04:19:05;6.13;;;3.20;;
77726;SDS011;68312;53.502;10.030;2023-08-06T04:21:30;6.03;;;3.30;;
77726;SDS011;68312;53.502;10.030;2023-08-06T04:23:56;7.32;;;3.47;;
77726;SDS011;68312;53.502;10.030;2023-08-06T04:26:22;6.78;;;3.40;;
77726;SDS011;68312;53.502;10.030;2023-08-06T04:28:47;8.10;;;3.42;;
77726;SDS011;68312;53.502;10.030;2023-08-06T04:31:13;7.18;;;4.30;;
77726;SDS011;68312;53.502;10.030;2023-08-06T04:33:39;7.43;;;3.67;;
77726;SDS011;68312;53.502;10.030;2023-08-06T04:36:05;6.05;;;3.67;;
77726;SDS011;68312;53.502;10.030;2023-08-06T04:38:30;7.70;;;3.60;;
77726;SDS011;68312;53.502;10.030;2023-08-06T04:40:56;10.15;;;3.55;;
77726;SDS011;68312;53.502;10.030;2023-08-06T04:43:21;7.05;;;3.40;;
77726;SDS011;68312;53.502;10.030;2023-08-06T04:45:50;6.10;;;3.60;;
77726;SDS011;68312;53.502;10.030;2023-08-06T04:48:18;6.03;;;3.38;;
77726;SDS011;68312;53.502;10.030;2023-08-06T04:50:47;7.75;;;3.65;;
77726;SDS011;68312;53.502;10.030;2023-08-06T04:53:15;7.82;;;3.85;;
77726;SDS011;68312;53.502;10.030;2023-08-06T04:55:41;8.00;;;3.70;;
77726;SDS011;68312;53.502;10.030;2023-08-06T04:58:08;5.68;;;3.30;;
77726;SDS011;68312;53.502;10.030;2023-08-06T05:00:35;5.82;;;3.30;;
77726;SDS011;68312;53.502;10.030;2023-08-06T05:03:00;7.00;;;3.50;;
77726;SDS011;68312;53.502;10.030;2023-08-06T05:05:26;7.28;;;3.38;;
77726;SDS011;68312;53.502;10.030;2023-08-06T05:07:53;6.53;;;3.55;;
77726;SDS011;68312;53.502;10.030;2023-08-06T05:10:21;5.97;;;3.58;;
77726;SDS011;68312;53.502;10.030;2023-08-06T05:12:46;11.02;;;3.92;;
77726;SDS011;68312;53.502;10.030;2023-08-06T05:15:12;6.38;;;3.20;;
77726;SDS011;68312;53.502;10.030;2023-08-06T05:17:37;6.60;;;3.20;;
77726;SDS011;68312;53.502;10.030;2023-08-06T05:20:03;6.93;;;3.75;;
77726;SDS011;68312;53.502;10.030;2023-08-06T05:22:28;7.57;;;3.75;;
77726;SDS011;68312;53.502;10.030;2023-08-06T05:24:54;9.95;;;3.78;;
77726;SDS011;68312;53.502;10.030;2023-08-06T05:27:19;5.50;;;3.15;;
77726;SDS011;68312;53.502;10.030;2023-08-06T05:29:45;5.47;;;3.45;;
77726;SDS011;68312;53.502;10.030;2023-08-06T05:32:11;7.65;;;3.50;;
77726;SDS011;68312;53.502;10.030;2023-08-06T05:34:36;8.00;;;3.33;;
77726;SDS011;68312;53.502;10.030;2023-08-06T05:37:02;7.72;;;3.95;;
77726;SDS011;68312;53.502;10.030;2023-08-06T05:39:29;5.50;;;3.58;;
77726;SDS011;68312;53.502;10.030;2023-08-06T05:41:54;6.03;;;3.50;;
77726;SDS011;68312;53.502;10.030;2023-08-06T05:44:20;6.90;;;3.85;;
77726;SDS011;68312;53.502;10.030;2023-08-06T05:46:46;8.50;;;3.45;;
77726;SDS011;68312;53.502;10.030;2023-08-06T05:49:12;7.05;;;3.85;;
77726;SDS011;68312;53.502;10.030;2023-08-06T05:51:38;12.10;;;3.83;;
77726;SDS011;68312;53.502;10.030;2023-08-06T05:54:04;6.20;;;3.30;;
77726;SDS011;68312;53.502;10.030;2023-08-06T05:56:30;8.10;;;3.75;;
77726;SDS011;68312;53.502;10.030;2023-08-06T05:58:55;10.70;;;4.10;;
77726;SDS011;68312;53.502;10.030;2023-08-06T06:01:21;10.32;;;4.03;;
77726;SDS011;68312;53.502;10.030;2023-08-06T06:03:46;6.95;;;3.55;;
77726;SDS011;68312;53.502;10.030;2023-08-06T06:06:11;7.65;;;3.42;;
77726;SDS011;68312;53.502;10.030;2023-08-06T06:08:37;10.52;;;3.55;;
77726;SDS011;68312;53.502;10.030;2023-08-06T06:11:02;6.10;;;3.60;;
77726;SDS011;68312;53.502;10.030;2023-08-06T06:13:28;5.30;;;3.20;;
77726;SDS011;68312;53.502;10.030;2023-08-06T06:15:56;5.47;;;3.42;;
77726;SDS011;68312;53.502;10.030;2023-08-06T06:18:22;6.22;;;3.50;;
77726;SDS011;68312;53.502;10.030;2023-08-06T06:20:47;8.10;;;3.50;;
77726;SDS011;68312;53.502;10.030;2023-08-06T06:23:13;6.15;;;3.28;;
77726;SDS011;68312;53.502;10.030;2023-08-06T06:25:48;8.13;;;3.65;;
77726;SDS011;68312;53.502;10.030;2023-08-06T06:28:18;8.13;;;3.85;;
77726;SDS011;68312;53.502;10.030;2023-08-06T06:30:44;8.57;;;3.53;;
77726;SDS011;68312;53.502;10.030;2023-08-06T06:33:09;6.47;;;3.88;;
77726;SDS011;68312;53.502;10.030;2023-08-06T06:35:35;6.55;;;3.53;;
77726;SDS011;68312;53.502;10.030;2023-08-06T06:38:00;8.93;;;3.60;;
77726;SDS011;68312;53.502;10.030;2023-08-06T06:40:26;6.60;;;3.47;;
77726;SDS011;68312;53.502;10.030;2023-08-06T06:42:51;6.65;;;3.33;;
77726;SDS011;68312;53.502;10.030;2023-08-06T06:45:17;7.05;;;3.55;;
77726;SDS011;68312;53.502;10.030;2023-08-06T06:47:42;8.05;;;3.85;;
77726;SDS011;68312;53.502;10.030;2023-08-06T06:50:08;10.38;;;4.05;;
77726;SDS011;68312;53.502;10.030;2023-08-06T06:52:34;6.85;;;3.55;;
77726;SDS011;68312;53.502;10.030;2023-08-06T06:54:59;7.18;;;3.47;;
77726;SDS011;68312;53.502;10.030;2023-08-06T07:01:06;8.02;;;3.40;;
77726;SDS011;68312;53.502;10.030;2023-08-06T07:03:32;8.02;;;4.25;;
77726;SDS011;68312;53.502;10.030;2023-08-06T07:05:58;6.68;;;3.83;;
77726;SDS011;68312;53.502;10.030;2023-08-06T07:08:24;5.70;;;3.65;;
77726;SDS011;68312;53.502;10.030;2023-08-06T07:10:50;7.07;;;3.60;;
77726;SDS011;68312;53.502;10.030;2023-08-06T07:13:16;9.68;;;3.80;;
77726;SDS011;68312;53.502;10.030;2023-08-06T07:15:41;8.60;;;3.78;;
77726;SDS011;68312;53.502;10.030;2023-08-06T07:18:07;5.57;;;3.35;;
77726;SDS011;68312;53.502;10.030;2023-08-06T07:20:33;12.55;;;3.67;;
77726;SDS011;68312;53.502;10.030;2023-08-06T07:22:59;6.60;;;3.53;;
77726;SDS011;68312;53.502;10.030;2023-08-06T07:25:25;6.82;;;3.17;;
77726;SDS011;68312;53.502;10.030;2023-08-06T07:27:51;6.68;;;3.80;;
77726;SDS011;68312;53.502;10.030;2023-08-06T07:30:16;10.10;;;3.60;;
77726;SDS011;68312;53.502;10.030;2023-08-06T07:32:42;7.25;;;3.15;;
77726;SDS011;68312;53.502;10.030;2023-08-06T07:35:07;8.38;;;3.65;;
77726;SDS011;68312;53.502;10.030;2023-08-06T07:37:38;6.55;;;3.70;;
77726;SDS011;68312;53.502;10.030;2023-08-06T07:40:04;6.32;;;3.58;;
77726;SDS011;68312;53.502;10.030;2023-08-06T07:42:31;5.75;;;3.35;;
77726;SDS011;68312;53.502;10.030;2023-08-06T07:44:58;6.00;;;3.60;;
77726;SDS011;68312;53.502;10.030;2023-08-06T07:47:24;7.72;;;3.83;;
77726;SDS011;68312;53.502;10.030;2023-08-06T07:49:50;6.60;;;3.92;;
77726;SDS011;68312;53.502;10.030;2023-08-06T07:52:16;7.68;;;3.78;;
77726;SDS011;68312;53.502;10.030;2023-08-06T07:54:41;7.65;;;3.78;;
77726;SDS011;68312;53.502;10.030;2023-08-06T07:57:07;8.25;;;4.43;;
77726;SDS011;68312;53.502;10.030;2023-08-06T07:59:32;9.27;;;3.78;;
77726;SDS011;68312;53.502;10.030;2023-08-06T08:01:58;7.20;;;3.53;;
77726;SDS011;68312;53.502;10.030;2023-08-06T08:04:24;7.55;;;3.50;;
77726;SDS011;68312;53.502;10.030;2023-08-06T08:06:49;8.38;;;3.63;;
77726;SDS011;68312;53.502;10.030;2023-08-06T08:09:15;6.65;;;3.65;;
77726;SDS011;68312;53.502;10.030;2023-08-06T08:11:41;6.05;;;3.60;;
77726;SDS011;68312;53.502;10.030;2023-08-06T08:14:07;9.50;;;3.80;;
77726;SDS011;68312;53.502;10.030;2023-08-06T08:16:33;7.75;;;4.00;;
77726;SDS011;68312;53.502;10.030;2023-08-06T08:18:58;5.80;;;3.50;;
77726;SDS011;68312;53.502;10.030;2023-08-06T08:21:24;6.25;;;3.58;;
77726;SDS011;68312;53.502;10.030;2023-08-06T08:23:50;9.90;;;4.03;;
77726;SDS011;68312;53.502;10.030;2023-08-06T08:26:16;7.70;;;3.80;;
77726;SDS011;68312;53.502;10.030;2023-08-06T08:28:42;7.28;;;3.50;;
77726;SDS011;68312;53.502;10.030;2023-08-06T08:31:08;8.20;;;3.90;;
77726;SDS011;68312;53.502;10.030;2023-08-06T08:33:34;9.10;;;3.70;;
77726;SDS011;68312;53.502;10.030;2023-08-06T08:36:00;5.75;;;3.40;;
77726;SDS011;68312;53.502;10.030;2023-08-06T08:38:25;7.35;;;3.90;;
77726;SDS011;68312;53.502;10.030;2023-08-06T08:40:51;9.75;;;3.75;;
77726;SDS011;68312;53.502;10.030;2023-08-06T08:43:20;8.75;;;4.07;;
77726;SDS011;68312;53.502;10.030;2023-08-06T08:45:47;7.00;;;4.35;;
77726;SDS011;68312;53.502;10.030;2023-08-06T08:48:17;8.20;;;4.10;;
77726;SDS011;68312;53.502;10.030;2023-08-06T08:50:45;9.38;;;4.03;;
77726;SDS011;68312;53.502;10.030;2023-08-06T08:53:13;11.50;;;4.18;;
77726;SDS011;68312;53.502;10.030;2023-08-06T08:55:40;9.27;;;4.57;;
77726;SDS011;68312;53.502;10.030;2023-08-06T08:58:09;8.15;;;4.07;;
77726;SDS011;68312;53.502;10.030;2023-08-06T09:00:35;7.18;;;4.25;;
77726;SDS011;68312;53.502;10.030;2023-08-06T09:03:01;7.15;;;3.97;;
77726;SDS011;68312;53.502;10.030;2023-08-06T09:05:31;9.57;;;4.80;;
77726;SDS011;68312;53.502;10.030;2023-08-06T09:08:00;8.35;;;4.70;;
77726;SDS011;68312;53.502;10.030;2023-08-06T09:10:28;8.77;;;4.75;;
77726;SDS011;68312;53.502;10.030;2023-08-06T09:12:55;10.02;;;4.68;;
77726;SDS011;68312;53.502;10.030;2023-08-06T09:15:25;11.65;;;4.70;;
77726;SDS011;68312;53.502;10.030;2023-08-06T09:17:52;8.40;;;4.82;;
77726;SDS011;68312;53.502;10.030;2023-08-06T09:20:18;9.38;;;4.80;;
77726;SDS011;68312;53.502;10.030;2023-08-06T09:22:45;7.40;;;4.53;;
77726;SDS011;68312;53.502;10.030;2023-08-06T09:25:13;9.05;;;4.60;;
77726;SDS011;68312;53.502;10.030;2023-08-06T09:27:50;13.23;;;5.28;;
77726;SDS011;68312;53.502;10.030;2023-08-06T09:30:29;11.68;;;5.13;;
77726;SDS011;68312;53.502;10.030;2023-08-06T09:32:57;13.05;;;5.20;;
77726;SDS011;68312;53.502;10.030;2023-08-06T09:35:22;8.23;;;4.93;;
77726;SDS011;68312;53.502;10.030;2023-08-06T09:37:48;10.27;;;5.07;;
77726;SDS011;68312;53.502;10.030;2023-08-06T09:40:47;8.43;;;4.85;;
77726;SDS011;68312;53.502;10.030;2023-08-06T09:43:06;11.27;;;4.75;;
77726;SDS011;68312;53.502;10.030;2023-08-06T09:45:32;9.82;;;4.75;;
77726;SDS011;68312;53.502;10.030;2023-08-06T09:48:06;12.40;;;5.03;;
77726;SDS011;68312;53.502;10.030;2023-08-06T09:50:34;8.07;;;4.78;;
77726;SDS011;68312;53.502;10.030;2023-08-06T09:53:03;8.23;;;5.10;;
77726;SDS011;68312;53.502;10.030;2023-08-06T09:55:31;10.48;;;4.72;;
77726;SDS011;68312;53.502;10.030;2023-08-06T09:57:58;10.45;;;5.35;;
77726;SDS011;68312;53.502;10.030;2023-08-06T10:00:25;9.10;;;5.05;;
77726;SDS011;68312;53.502;10.030;2023-08-06T10:02:52;10.60;;;5.38;;
77726;SDS011;68312;53.502;10.030;2023-08-06T10:05:21;9.30;;;5.25;;
77726;SDS011;68312;53.502;10.030;2023-08-06T10:07:47;8.88;;;5.25;;
77726;SDS011;68312;53.502;10.030;2023-08-06T10:10:17;9.43;;;4.80;;
77726;SDS011;68312;53.502;10.030;2023-08-06T10:12:51;11.30;;;5.15;;
77726;SDS011;68312;53.502;10.030;2023-08-06T10:26:48;11.10;;;4.90;;
77726;SDS011;68312;53.502;10.030;2023-08-06T10:32:02;8.85;;;4.68;;
77726;SDS011;68312;53.502;10.030;2023-08-06T10:37:34;8.48;;;4.85;;
77726;SDS011;68312;53.502;10.030;2023-08-06T10:40:02;9.25;;;4.55;;
77726;SDS011;68312;53.502;10.030;2023-08-06T10:42:29;7.47;;;4.32;;
77726;SDS011;68312;53.502;10.030;2023-08-06T10:45:11;5.82;;;3.85;;
77726;SDS011;68312;53.502;10.030;2023-08-06T10:47:41;8.68;;;4.10;;
77726;SDS011;68312;53.502;10.030;2023-08-06T10:50:10;10.20;;;5.07;;
77726;SDS011;68312;53.502;10.030;2023-08-06T10:52:38;6.07;;;4.22;;
77726;SDS011;68312;53.502;10.030;2023-08-06T10:55:05;8.25;;;4.10;;
77726;SDS011;68312;53.502;10.030;2023-08-06T10:57:31;6.47;;;3.85;;
77726;SDS011;68312;53.502;10.030;2023-08-06T10:59:56;5.95;;;4.00;;
77726;SDS011;68312;53.502;10.030;2023-08-06T11:02:22;6.55;;;4.30;;
77726;SDS011;68312;53.502;10.030;2023-08-06T11:04:48;5.85;;;3.65;;
77726;SDS011;68312;53.502;10.030;2023-08-06T11:07:14;7.07;;;4.20;;
77726;SDS011;68312;53.502;10.030;2023-08-06T11:09:39;7.70;;;4.55;;
77726;SDS011;68312;53.502;10.030;2023-08-06T11:12:10;6.05;;;3.83;;
77726;SDS011;68312;53.502;10.030;2023-08-06T11:14:37;7.05;;;4.47;;
77726;SDS011;68312;53.502;10.030;2023-08-06T11:17:04;6.22;;;3.72;;
77726;SDS011;68312;53.502;10.030;2023-08-06T11:19:31;7.30;;;4.97;;
77726;SDS011;68312;53.502;10.030;2023-08-06T11:21:56;7.18;;;4.53;;
77726;SDS011;68312;53.502;10.030;2023-08-06T11:24:23;7.03;;;4.15;;
77726;SDS011;68312;53.502;10.030;2023-08-06T11:26:49;5.28;;;3.65;;
77726;SDS011;68312;53.502;10.030;2023-08-06T11:29:15;6.50;;;3.85;;
77726;SDS011;68312;53.502;10.030;2023-08-06T11:31:41;7.32;;;3.92;;
77726;SDS011;68312;53.502;10.030;2023-08-06T11:34:06;6.82;;;4.22;;
77726;SDS011;68312;53.502;10.030;2023-08-06T11:36:32;7.97;;;4.57;;
77726;SDS011;68312;53.502;10.030;2023-08-06T11:39:01;8.25;;;4.40;;
77726;SDS011;68312;53.502;10.030;2023-08-06T11:41:30;5.00;;;3.08;;
77726;SDS011;68312;53.502;10.030;2023-08-06T11:43:56;5.80;;;3.05;;
77726;SDS011;68312;53.502;10.030;2023-08-06T11:46:26;4.55;;;3.10;;
77726;SDS011;68312;53.502;10.030;2023-08-06T11:48:52;5.65;;;3.63;;
77726;SDS011;68312;53.502;10.030;2023-08-06T11:51:23;6.35;;;3.30;;
77726;SDS011;68312;53.502;10.030;2023-08-06T11:54:00;5.43;;;3.40;;
77726;SDS011;68312;53.502;10.030;2023-08-06T11:56:27;4.47;;;3.05;;
77726;SDS011;68312;53.502;10.030;2023-08-06T11:58:54;4.63;;;3.10;;
77726;SDS011;68312;53.502;10.030;2023-08-06T12:01:20;4.78;;;3.22;;
77726;SDS011;68312;53.502;10.030;2023-08-06T12:03:45;7.88;;;3.38;;
77726;SDS011;68312;53.502;10.030;2023-08-06T12:06:11;6.32;;;3.30;;
77726;SDS011;68312;53.502;10.030;2023-08-06T12:08:36;5.68;;;3.40;;
77726;SDS011;68312;53.502;10.030;2023-08-06T12:11:03;7.05;;;3.85;;
77726;SDS011;68312;53.502;10.030;2023-08-06T12:13:28;6.75;;;4.68;;
77726;SDS011;68312;53.502;10.030;2023-08-06T12:15:54;7.80;;;4.95;;
77726;SDS011;68312;53.502;10.030;2023-08-06T12:18:22;8.07;;;4.80;;
77726;SDS011;68312;53.502;10.030;2023-08-06T12:20:48;7.15;;;4.63;;
77726;SDS011;68312;53.502;10.030;2023-08-06T12:23:13;6.70;;;4.20;;
77726;SDS011;68312;53.502;10.030;2023-08-06T12:25:40;7.00;;;4.70;;
77726;SDS011;68312;53.502;10.030;2023-08-06T12:28:06;8.13;;;4.43;;
77726;SDS011;68312;53.502;10.030;2023-08-06T12:30:33;7.00;;;4.50;;
77726;SDS011;68312;53.502;10.030;2023-08-06T12:32:59;9.70;;;4.55;;
77726;SDS011;68312;53.502;10.030;2023-08-06T12:35:24;5.90;;;4.22;;
77726;SDS011;68312;53.502;10.030;2023-08-06T12:37:51;8.27;;;4.68;;
77726;SDS011;68312;53.502;10.030;2023-08-06T12:40:22;7.97;;;4.82;;
77726;SDS011;68312;53.502;10.030;2023-08-06T12:42:49;6.82;;;4.07;;
77726;SDS011;68312;53.502;10.030;2023-08-06T12:45:15;8.75;;;4.32;;
77726;SDS011;68312;53.502;10.030;2023-08-06T12:47:41;5.97;;;4.38;;
77726;SDS011;68312;53.502;10.030;2023-08-06T12:50:06;8.52;;;4.97;;
77726;SDS011;68312;53.502;10.030;2023-08-06T12:52:32;6.45;;;4.20;;
77726;SDS011;68312;53.502;10.030;2023-08-06T12:54:58;8.75;;;4.90;;
77726;SDS011;68312;53.502;10.030;2023-08-06T12:57:23;6.05;;;3.75;;
77726;SDS011;68312;53.502;10.030;2023-08-06T12:59:49;5.93;;;3.55;;
77726;SDS011;68312;53.502;10.030;2023-08-06T13:02:14;6.40;;;4.32;;
77726;SDS011;68312;53.502;10.030;2023-08-06T13:04:40;5.70;;;3.45;;
77726;SDS011;68312;53.502;10.030;2023-08-06T13:07:05;5.45;;;3.95;;
77726;SDS011;68312;53.502;10.030;2023-08-06T13:09:32;7.03;;;3.85;;
77726;SDS011;68312;53.502;10.030;2023-08-06T13:11:58;6.68;;;3.95;;
77726;SDS011;68312;53.502;10.030;2023-08-06T13:14:25;6.22;;;3.80;;
77726;SDS011;68312;53.502;10.030;2023-08-06T13:16:50;5.15;;;3.20;;
77726;SDS011;68312;53.502;10.030;2023-08-06T13:19:16;5.65;;;3.50;;
77726;SDS011;68312;53.502;10.030;2023-08-06T13:24:07;5.95;;;3.10;;
77726;SDS011;68312;53.502;10.030;2023-08-06T13:26:33;5.38;;;3.15;;
77726;SDS011;68312;53.502;10.030;2023-08-06T13:29:00;7.28;;;3.33;;
77726;SDS011;68312;53.502;10.030;2023-08-06T13:31:27;5.32;;;3.17;;
77726;SDS011;68312;53.502;10.030;2023-08-06T13:33:57;6.05;;;3.10;;
77726;SDS011;68312;53.502;10.030;2023-08-06T13:36:25;7.15;;;3.85;;
77726;SDS011;68312;53.502;10.030;2023-08-06T13:38:52;4.50;;;3.35;;
77726;SDS011;68312;53.502;10.030;2023-08-06T13:41:18;5.18;;;3.60;;
77726;SDS011;68312;53.502;10.030;2023-08-06T13:43:43;8.32;;;4.10;;
77726;SDS011;68312;53.502;10.030;2023-08-06T13:46:09;4.82;;;3.88;;
77726;SDS011;68312;53.502;10.030;2023-08-06T13:48:40;8.02;;;4.65;;
77726;SDS011;68312;53.502;10.030;2023-08-06T13:51:05;6.30;;;4.32;;
77726;SDS011;68312;53.502;10.030;2023-08-06T13:53:30;7.28;;;4.80;;
77726;SDS011;68312;53.502;10.030;2023-08-06T13:55:56;7.65;;;4.38;;
77726;SDS011;68312;53.502;10.030;2023-08-06T13:58:22;6.93;;;4.07;;
77726;SDS011;68312;53.502;10.030;2023-08-06T14:00:48;6.55;;;4.45;;
77726;SDS011;68312;53.502;10.030;2023-08-06T14:03:14;6.18;;;3.92;;
77726;SDS011;68312;53.502;10.030;2023-08-06T14:05:40;6.30;;;3.88;;
77726;SDS011;68312;53.502;10.030;2023-08-06T14:08:06;8.43;;;4.25;;
77726;SDS011;68312;53.502;10.030;2023-08-06T14:10:32;9.15;;;3.50;;
77726;SDS011;68312;53.502;10.030;2023-08-06T14:12:57;7.68;;;3.15;;
77726;SDS011;68312;53.502;10.030;2023-08-06T14:15:22;6.80;;;2.97;;
77726;SDS011;68312;53.502;10.030;2023-08-06T14:17:48;5.93;;;3.33;;
77726;SDS011;68312;53.502;10.030;2023-08-06T14:20:14;6.82;;;3.55;;
77726;SDS011;68312;53.502;10.030;2023-08-06T14:22:39;5.60;;;3.30;;
77726;SDS011;68312;53.502;10.030;2023-08-06T14:25:05;7.22;;;3.67;;
77726;SDS011;68312;53.502;10.030;2023-08-06T14:27:31;9.27;;;3.15;;
77726;SDS011;68312;53.502;10.030;2023-08-06T14:29:57;6.50;;;2.80;;
77726;SDS011;68312;53.502;10.030;2023-08-06T14:32:22;6.95;;;3.45;;
77726;SDS011;68312;53.502;10.030;2023-08-06T14:34:47;5.90;;;2.90;;
77726;SDS011;68312;53.502;10.030;2023-08-06T14:37:13;6.00;;;2.55;;
77726;SDS011;68312;53.502;10.030;2023-08-06T14:39:38;6.43;;;2.47;;
77726;SDS011;68312;53.502;10.030;2023-08-06T14:42:04;4.68;;;2.60;;
77726;SDS011;68312;53.502;10.030;2023-08-06T14:44:30;6.43;;;2.22;;
77726;SDS011;68312;53.502;10.030;2023-08-06T14:46:56;5.38;;;2.63;;
77726;SDS011;68312;53.502;10.030;2023-08-06T14:49:21;7.07;;;3.25;;
77726;SDS011;68312;53.502;10.030;2023-08-06T14:51:47;5.60;;;2.22;;
77726;SDS011;68312;53.502;10.030;2023-08-06T14:54:12;6.03;;;2.40;;
77726;SDS011;68312;53.502;10.030;2023-08-06T14:56:37;7.50;;;2.10;;